sensor_id;sensor_type;location;lat;lon;timestamp;pressure;altitude;pressure_sealevel;temperature;humidity
77737;BME280;66903;59.926;30.404;2024-02-26T00:03:40;101383.66;;;7.35;60.83
77737;BME280;66903;59.926;30.404;2024-02-26T00:08:53;101401.31;;;7.50;60.56
77737;BME280;66903;59.926;30.404;2024-02-26T00:14:04;101420.06;;;7.56;60.94
77737;BME280;66903;59.926;30.404;2024-02-26T00:19:15;101414.63;;;7.62;60.69
77737;BME280;66903;59.926;30.404;2024-02-26T00:24:26;101397.22;;;7.68;60.38
77737;BME280;66903;59.926;30.404;2024-02-26T00:29:37;101397.38;;;7.75;60.60
77737;BME280;66903;59.926;30.404;2024-02-26T00:34:48;101382.28;;;7.69;60.74
77737;BME280;66903;59.926;30.404;2024-02-26T00:39:59;101384.03;;;7.70;60.67
77737;BME280;66903;59.926;30.404;2024-02-26T00:45:11;101396.22;;;7.61;60.85
77737;BME280;66903;59.926;30.404;2024-02-26T00:50:22;101387.19;;;7.59;60.74
77737;BME280;66903;59.926;30.404;2024-02-26T00:55:33;101368.50;;;7.45;60.46
77737;BME280;66903;59.926;30.404;2024-02-26T01:00:44;101354.19;;;7.26;61.07
77737;BME280;66903;59.926;30.404;2024-02-26T01:05:55;101365.63;;;7.31;60.66
77737;BME280;66903;59.926;30.404;2024-02-26T01:11:06;101392.66;;;7.45;61.44
77737;BME280;66903;59.926;30.404;2024-02-26T01:16:18;101377.38;;;7.41;60.50
77737;BME280;66903;59.926;30.404;2024-02-26T01:21:29;101348.94;;;7.31;60.76
77737;BME280;66903;59.926;30.404;2024-02-26T01:26:41;101371.31;;;7.37;61.10
77737;BME280;66903;59.926;30.404;2024-02-26T01:31:52;101377.09;;;7.28;61.54
77737;BME280;66903;59.926;30.404;2024-02-26T01:37:03;101366.00;;;7.20;61.87
77737;BME280;66903;59.926;30.404;2024-02-26T01:42:14;101327.34;;;7.02;61.20
77737;BME280;66903;59.926;30.404;2024-02-26T01:47:26;101342.94;;;7.11;61.62
77737;BME280;66903;59.926;30.404;2024-02-26T01:52:38;101357.66;;;7.20;61.43
77737;BME280;66903;59.926;30.404;2024-02-26T01:57:50;101359.41;;;7.21;61.72
77737;BME280;66903;59.926;30.404;2024-02-26T02:03:06;101355.38;;;7.23;61.90
77737;BME280;66903;59.926;30.404;2024-02-26T02:08:17;101357.66;;;7.20;61.29
77737;BME280;66903;59.926;30.404;2024-02-26T02:13:29;101353.72;;;7.06;61.68
77737;BME280;66903;59.926;30.404;2024-02-26T02:18:40;101351.28;;;7.11;62.00
77737;BME280;66903;59.926;30.404;2024-02-26T02:23:51;101365.66;;;7.15;61.56
77737;BME280;66903;59.926;30.404;2024-02-26T02:29:02;101353.22;;;7.11;61.84
77737;BME280;66903;59.926;30.404;2024-02-26T02:34:13;101357.53;;;7.13;61.44
77737;BME280;66903;59.926;30.404;2024-02-26T02:39:25;101343.94;;;7.18;62.08
77737;BME280;66903;59.926;30.404;2024-02-26T02:44:36;101341.75;;;7.06;61.54
77737;BME280;66903;59.926;30.404;2024-02-26T02:49:47;101311.78;;;6.93;62.33
77737;BME280;66903;59.926;30.404;2024-02-26T02:54:58;101332.56;;;7.05;61.93
77737;BME280;66903;59.926;30.404;2024-02-26T03:00:10;101313.81;;;7.07;61.96
77737;BME280;66903;59.926;30.404;2024-02-26T03:05:21;101340.16;;;7.19;61.61
77737;BME280;66903;59.926;30.404;2024-02-26T03:10:32;101334.72;;;7.26;61.18
77737;BME280;66903;59.926;30.404;2024-02-26T03:15:43;101329.69;;;7.29;62.00
77737;BME280;66903;59.926;30.404;2024-02-26T03:20:54;101298.66;;;7.18;61.73
77737;BME280;66903;59.926;30.404;2024-02-26T03:26:06;101316.84;;;7.28;61.73
77737;BME280;66903;59.926;30.404;2024-02-26T03:31:17;101335.59;;;7.26;62.19
77737;BME280;66903;59.926;30.404;2024-02-26T03:36:28;101296.28;;;7.07;61.66
77737;BME280;66903;59.926;30.404;2024-02-26T03:41:39;101299.94;;;6.99;62.01
77737;BME280;66903;59.926;30.404;2024-02-26T03:46:50;101318.34;;;7.00;61.60
77737;BME280;66903;59.926;30.404;2024-02-26T03:52:03;101311.47;;;6.80;62.54
77737;BME280;66903;59.926;30.404;2024-02-26T03:57:16;101310.81;;;6.70;62.43
77737;BME280;66903;59.926;30.404;2024-02-26T04:02:31;101286.41;;;6.49;62.41
77737;BME280;66903;59.926;30.404;2024-02-26T04:07:42;101309.28;;;6.59;63.00
77737;BME280;66903;59.926;30.404;2024-02-26T04:12:53;101281.03;;;6.40;62.79
77737;BME280;66903;59.926;30.404;2024-02-26T04:18:04;101309.13;;;6.45;63.25
77737;BME280;66903;59.926;30.404;2024-02-26T04:23:15;101297.00;;;6.46;63.61
77737;BME280;66903;59.926;30.404;2024-02-26T04:28:26;101264.94;;;6.35;63.18
77737;BME280;66903;59.926;30.404;2024-02-26T04:33:39;101279.13;;;6.48;63.63
77737;BME280;66903;59.926;30.404;2024-02-26T04:38:52;101267.16;;;6.48;63.77
77737;BME280;66903;59.926;30.404;2024-02-26T04:44:06;101274.78;;;6.54;63.54
77737;BME280;66903;59.926;30.404;2024-02-26T04:49:17;101248.44;;;6.42;62.76
77737;BME280;66903;59.926;30.404;2024-02-26T04:54:28;101258.66;;;6.49;62.80
77737;BME280;66903;59.926;30.404;2024-02-26T04:59:41;101244.47;;;6.36;63.55
77737;BME280;66903;59.926;30.404;2024-02-26T05:04:53;101281.03;;;6.48;63.35
77737;BME280;66903;59.926;30.404;2024-02-26T05:10:04;101271.19;;;6.29;64.30
77737;BME280;66903;59.926;30.404;2024-02-26T05:15:16;101311.59;;;6.32;64.07
77737;BME280;66903;59.926;30.404;2024-02-26T05:20:28;101290.44;;;6.23;64.53
77737;BME280;66903;59.926;30.404;2024-02-26T05:25:39;101277.28;;;6.09;63.76
77737;BME280;66903;59.926;30.404;2024-02-26T05:30:52;101297.53;;;6.17;64.89
77737;BME280;66903;59.926;30.404;2024-02-26T05:36:03;101272.25;;;6.04;64.98
77737;BME280;66903;59.926;30.404;2024-02-26T05:41:16;101270.50;;;6.11;64.58
77737;BME280;66903;59.926;30.404;2024-02-26T05:46:27;101267.41;;;6.14;64.56
77737;BME280;66903;59.926;30.404;2024-02-26T05:51:38;101297.34;;;6.27;64.60
77737;BME280;66903;59.926;30.404;2024-02-26T05:56:49;101278.66;;;6.21;64.29
77737;BME280;66903;59.926;30.404;2024-02-26T06:02:00;101303.09;;;6.33;64.25
77737;BME280;66903;59.926;30.404;2024-02-26T06:07:11;101260.25;;;6.20;64.62
77737;BME280;66903;59.926;30.404;2024-02-26T06:12:42;101294.03;;;6.39;64.80
77737;BME280;66903;59.926;30.404;2024-02-26T06:17:53;101277.94;;;6.35;64.22
77737;BME280;66903;59.926;30.404;2024-02-26T06:23:04;101285.72;;;6.39;64.10
77737;BME280;66903;59.926;30.404;2024-02-26T06:28:19;101246.19;;;6.37;63.61
77737;BME280;66903;59.926;30.404;2024-02-26T06:33:30;101256.41;;;6.45;63.31
77737;BME280;66903;59.926;30.404;2024-02-26T06:38:41;101233.88;;;6.40;64.04
77737;BME280;66903;59.926;30.404;2024-02-26T06:44:07;101216.03;;;6.42;64.65
77737;BME280;66903;59.926;30.404;2024-02-26T06:49:18;101262.63;;;6.55;63.84
77737;BME280;66903;59.926;30.404;2024-02-26T06:54:29;101229.06;;;6.26;64.10
77737;BME280;66903;59.926;30.404;2024-02-26T06:59:40;101264.41;;;6.40;64.30
77737;BME280;66903;59.926;30.404;2024-02-26T07:04:51;101245.72;;;6.26;64.35
77737;BME280;66903;59.926;30.404;2024-02-26T07:10:02;101248.66;;;6.24;64.42
77737;BME280;66903;59.926;30.404;2024-02-26T07:15:20;101270.13;;;6.38;64.49
77737;BME280;66903;59.926;30.404;2024-02-26T07:20:31;101259.03;;;6.30;65.12
77737;BME280;66903;59.926;30.404;2024-02-26T07:25:45;101271.16;;;6.37;65.19
77737;BME280;66903;59.926;30.404;2024-02-26T07:30:59;101236.38;;;6.19;64.77
77737;BME280;66903;59.926;30.404;2024-02-26T07:36:11;101261.81;;;6.38;64.28
77737;BME280;66903;59.926;30.404;2024-02-26T07:41:22;101233.56;;;6.27;64.14
77737;BME280;66903;59.926;30.404;2024-02-26T07:46:33;101254.88;;;6.42;64.81
77737;BME280;66903;59.926;30.404;2024-02-26T07:51:44;101242.91;;;6.42;64.77
77737;BME280;66903;59.926;30.404;2024-02-26T07:56:55;101239.91;;;6.51;64.13
77737;BME280;66903;59.926;30.404;2024-02-26T08:02:06;101220.16;;;6.54;64.58
77737;BME280;66903;59.926;30.404;2024-02-26T08:07:17;101221.34;;;6.60;63.86
77737;BME280;66903;59.926;30.404;2024-02-26T08:12:28;101237.53;;;6.87;64.29
77737;BME280;66903;59.926;30.404;2024-02-26T08:17:39;101228.13;;;6.96;63.45
77737;BME280;66903;59.926;30.404;2024-02-26T08:22:53;101221.50;;;6.97;63.35
77737;BME280;66903;59.926;30.404;2024-02-26T08:28:05;101232.34;;;7.15;62.84
77737;BME280;66903;59.926;30.404;2024-02-26T08:33:17;101209.50;;;7.05;62.48
77737;BME280;66903;59.926;30.404;2024-02-26T08:38:28;101227.72;;;7.07;62.73
77737;BME280;66903;59.926;30.404;2024-02-26T08:43:39;101228.94;;;7.05;63.58
77737;BME280;66903;59.926;30.404;2024-02-26T08:48:49;101224.09;;;6.99;62.83
77737;BME280;66903;59.926;30.404;2024-02-26T08:54:00;101233.13;;;7.01;62.99
77737;BME280;66903;59.926;30.404;2024-02-26T08:59:12;101204.41;;;6.86;62.96
77737;BME280;66903;59.926;30.404;2024-02-26T09:04:23;101228.31;;;6.95;62.68
77737;BME280;66903;59.926;30.404;2024-02-26T09:09:38;101204.78;;;6.74;62.32
77737;BME280;66903;59.926;30.404;2024-02-26T09:14:48;101211.91;;;6.77;62.72
77737;BME280;66903;59.926;30.404;2024-02-26T09:19:59;101216.72;;;6.83;62.66
77737;BME280;66903;59.926;30.404;2024-02-26T09:25:10;101226.81;;;6.76;62.42
77737;BME280;66903;59.926;30.404;2024-02-26T09:30:21;101217.66;;;6.67;62.47
77737;BME280;66903;59.926;30.404;2024-02-26T09:35:33;101198.97;;;6.61;62.34
77737;BME280;66903;59.926;30.404;2024-02-26T09:40:44;101252.84;;;6.75;62.47
77737;BME280;66903;59.926;30.404;2024-02-26T09:45:56;101252.72;;;6.68;62.34
77737;BME280;66903;59.926;30.404;2024-02-26T09:51:25;101231.94;;;6.56;62.56
77737;BME280;66903;59.926;30.404;2024-02-26T09:56:42;101242.88;;;6.50;62.37
77737;BME280;66903;59.926;30.404;2024-02-26T10:01:55;101226.41;;;6.56;62.29
77737;BME280;66903;59.926;30.404;2024-02-26T10:07:12;101199.31;;;6.58;62.69
77737;BME280;66903;59.926;30.404;2024-02-26T10:12:23;101190.13;;;6.58;62.30
77737;BME280;66903;59.926;30.404;2024-02-26T10:17:37;101236.53;;;6.80;62.36
77737;BME280;66903;59.926;30.404;2024-02-26T10:22:49;101221.19;;;6.92;62.12
77737;BME280;66903;59.926;30.404;2024-02-26T10:28:01;101221.50;;;6.97;61.51
77737;BME280;66903;59.926;30.404;2024-02-26T10:33:15;101228.13;;;6.96;61.32
77737;BME280;66903;59.926;30.404;2024-02-26T10:38:26;101222.94;;;6.93;62.30
77737;BME280;66903;59.926;30.404;2024-02-26T10:43:37;101207.31;;;6.92;62.16
77737;BME280;66903;59.926;30.404;2024-02-26T10:48:53;101201.88;;;6.99;61.44
77737;BME280;66903;59.926;30.404;2024-02-26T10:54:08;101183.28;;;6.77;62.09
77737;BME280;66903;59.926;30.404;2024-02-26T10:59:22;101209.13;;;6.77;62.80
77737;BME280;66903;59.926;30.404;2024-02-26T11:04:33;101224.38;;;6.81;62.20
77737;BME280;66903;59.926;30.404;2024-02-26T11:09:45;101212.22;;;6.82;62.06
77737;BME280;66903;59.926;30.404;2024-02-26T11:15:05;101220.97;;;7.02;61.95
77737;BME280;66903;59.926;30.404;2024-02-26T11:20:17;101202.72;;;7.07;61.55
77737;BME280;66903;59.926;30.404;2024-02-26T11:25:30;101204.50;;;7.00;61.64
77737;BME280;66903;59.926;30.404;2024-02-26T11:30:44;101199.28;;;6.97;62.29
77737;BME280;66903;59.926;30.404;2024-02-26T11:35:57;101210.59;;;6.96;61.63
77737;BME280;66903;59.926;30.404;2024-02-26T11:41:09;101173.69;;;6.87;61.87
77737;BME280;66903;59.926;30.404;2024-02-26T11:51:41;101219.63;;;7.28;62.00
77737;BME280;66903;59.926;30.404;2024-02-26T11:56:57;101222.81;;;7.09;61.42
77737;BME280;66903;59.926;30.404;2024-02-26T12:02:09;101219.59;;;6.98;62.17
77737;BME280;66903;59.926;30.404;2024-02-26T12:07:21;101185.22;;;6.68;62.21
77737;BME280;66903;59.926;30.404;2024-02-26T12:12:34;101179.53;;;6.61;61.99
77737;BME280;66903;59.926;30.404;2024-02-26T12:17:48;101212.28;;;6.74;62.36
77737;BME280;66903;59.926;30.404;2024-02-26T12:23:06;101172.94;;;6.62;62.18
77737;BME280;66903;59.926;30.404;2024-02-26T12:28:16;101203.53;;;6.85;62.32
77737;BME280;66903;59.926;30.404;2024-02-26T12:33:28;101195.88;;;6.87;62.72
77737;BME280;66903;59.926;30.404;2024-02-26T12:38:39;101200.22;;;6.90;62.50
77737;BME280;66903;59.926;30.404;2024-02-26T12:44:00;101180.69;;;6.75;62.42
77737;BME280;66903;59.926;30.404;2024-02-26T12:49:15;101164.63;;;6.62;61.40
77737;BME280;66903;59.926;30.404;2024-02-26T12:54:29;101207.03;;;6.79;62.52
77737;BME280;66903;59.926;30.404;2024-02-26T12:59:47;101209.13;;;6.77;62.09
77737;BME280;66903;59.926;30.404;2024-02-26T13:04:58;101182.75;;;6.42;61.90
77737;BME280;66903;59.926;30.404;2024-02-26T13:10:11;101181.56;;;6.37;62.12
77737;BME280;66903;59.926;30.404;2024-02-26T13:15:22;101206.78;;;6.50;63.18
77737;BME280;66903;59.926;30.404;2024-02-26T13:20:34;101197.28;;;6.52;62.67
77737;BME280;66903;59.926;30.404;2024-02-26T13:25:56;101215.13;;;6.58;62.47
77737;BME280;66903;59.926;30.404;2024-02-26T13:31:10;101212.16;;;6.51;62.55
77737;BME280;66903;59.926;30.404;2024-02-26T13:36:32;101185.00;;;6.39;63.46
77737;BME280;66903;59.926;30.404;2024-02-26T13:41:52;101226.22;;;6.50;62.54
77737;BME280;66903;59.926;30.404;2024-02-26T13:47:03;101231.59;;;6.59;63.12
77737;BME280;66903;59.926;30.404;2024-02-26T13:52:15;101181.69;;;6.43;62.68
77737;BME280;66903;59.926;30.404;2024-02-26T13:57:26;101210.78;;;6.55;63.01
77737;BME280;66903;59.926;30.404;2024-02-26T14:02:37;101167.81;;;6.43;63.01
77737;BME280;66903;59.926;30.404;2024-02-26T14:07:57;101208.50;;;6.59;63.15
77737;BME280;66903;59.926;30.404;2024-02-26T14:13:08;101210.25;;;6.60;62.81
77737;BME280;66903;59.926;30.404;2024-02-26T14:18:19;101219.41;;;6.68;62.87
77737;BME280;66903;59.926;30.404;2024-02-26T14:23:30;101218.16;;;6.71;63.31
77737;BME280;66903;59.926;30.404;2024-02-26T14:28:41;101195.38;;;6.53;62.92
77737;BME280;66903;59.926;30.404;2024-02-26T14:33:52;101223.72;;;6.71;62.70
77737;BME280;66903;59.926;30.404;2024-02-26T14:39:04;101184.59;;;6.50;63.33
77737;BME280;66903;59.926;30.404;2024-02-26T14:44:15;101195.47;;;6.67;62.22
77737;BME280;66903;59.926;30.404;2024-02-26T14:49:29;101213.16;;;6.66;62.73
77737;BME280;66903;59.926;30.404;2024-02-26T14:54:44;101205.91;;;6.57;62.47
77737;BME280;66903;59.926;30.404;2024-02-26T15:00:05;101243.00;;;6.64;62.17
77737;BME280;66903;59.926;30.404;2024-02-26T15:05:20;101240.94;;;6.58;63.37
77737;BME280;66903;59.926;30.404;2024-02-26T15:10:31;101233.19;;;6.46;62.88
77737;BME280;66903;59.926;30.404;2024-02-26T15:15:48;101215.53;;;6.39;63.36
77737;BME280;66903;59.926;30.404;2024-02-26T15:20:59;101240.47;;;6.47;63.49
77737;BME280;66903;59.926;30.404;2024-02-26T15:26:11;101252.06;;;6.50;62.96
77737;BME280;66903;59.926;30.404;2024-02-26T15:31:22;101265.59;;;6.45;63.25
77737;BME280;66903;59.926;30.404;2024-02-26T15:36:35;101259.53;;;6.42;63.46
77737;BME280;66903;59.926;30.404;2024-02-26T15:41:49;101222.13;;;6.22;63.58
77737;BME280;66903;59.926;30.404;2024-02-26T15:47:00;101233.03;;;6.31;63.10
77737;BME280;66903;59.926;30.404;2024-02-26T15:52:12;101235.97;;;6.38;63.73
77737;BME280;66903;59.926;30.404;2024-02-26T15:57:23;101235.66;;;6.25;64.21
77737;BME280;66903;59.926;30.404;2024-02-26T16:02:34;101213.47;;;6.17;63.37
77737;BME280;66903;59.926;30.404;2024-02-26T16:08:03;101224.56;;;6.25;63.98
77737;BME280;66903;59.926;30.404;2024-02-26T16:13:16;101263.88;;;6.36;64.20
77737;BME280;66903;59.926;30.404;2024-02-26T16:18:30;101255.03;;;6.41;64.31
77737;BME280;66903;59.926;30.404;2024-02-26T16:23:42;101248.31;;;6.27;64.07
77737;BME280;66903;59.926;30.404;2024-02-26T16:28:53;101284.34;;;6.43;64.62
77737;BME280;66903;59.926;30.404;2024-02-26T16:34:04;101254.22;;;6.24;64.57
77737;BME280;66903;59.926;30.404;2024-02-26T16:39:19;101233.44;;;6.12;64.76
77737;BME280;66903;59.926;30.404;2024-02-26T16:44:37;101230.31;;;5.99;65.24
77737;BME280;66903;59.926;30.404;2024-02-26T16:49:51;101268.06;;;6.16;64.73
77737;BME280;66903;59.926;30.404;2024-02-26T16:55:02;101272.38;;;6.27;64.77
77737;BME280;66903;59.926;30.404;2024-02-26T17:00:14;101272.38;;;6.27;65.03
77737;BME280;66903;59.926;30.404;2024-02-26T17:05:26;101269.78;;;6.25;65.06
77737;BME280;66903;59.926;30.404;2024-02-26T17:10:38;101249.72;;;6.15;64.86
77737;BME280;66903;59.926;30.404;2024-02-26T17:15:49;101280.38;;;6.22;65.37
77737;BME280;66903;59.926;30.404;2024-02-26T17:21:00;101244.84;;;6.09;64.25
77737;BME280;66903;59.926;30.404;2024-02-26T17:26:22;101294.59;;;6.35;65.34
77737;BME280;66903;59.926;30.404;2024-02-26T17:31:35;101289.03;;;6.35;64.90
77737;BME280;66903;59.926;30.404;2024-02-26T17:36:53;101276.38;;;6.40;64.11
77737;BME280;66903;59.926;30.404;2024-02-26T17:42:04;101294.56;;;6.51;64.53
77737;BME280;66903;59.926;30.404;2024-02-26T17:47:22;101259.22;;;6.37;64.82
77737;BME280;66903;59.926;30.404;2024-02-26T17:52:33;101287.59;;;6.55;64.25
77737;BME280;66903;59.926;30.404;2024-02-26T17:57:46;101292.44;;;6.61;63.56
77737;BME280;66903;59.926;30.404;2024-02-26T18:02:58;101274.63;;;6.47;63.55
77737;BME280;66903;59.926;30.404;2024-02-26T18:08:09;101272.69;;;6.56;63.72
77737;BME280;66903;59.926;30.404;2024-02-26T18:13:21;101269.78;;;6.49;64.47
77737;BME280;66903;59.926;30.404;2024-02-26T18:18:32;101281.38;;;6.53;64.06
77737;BME280;66903;59.926;30.404;2024-02-26T18:23:43;101277.41;;;6.47;63.38
77737;BME280;66903;59.926;30.404;2024-02-26T18:28:54;101321.22;;;6.68;63.62
77737;BME280;66903;59.926;30.404;2024-02-26T18:34:05;101278.25;;;6.48;64.49
77737;BME280;66903;59.926;30.404;2024-02-26T18:39:16;101289.84;;;6.51;64.37
77737;BME280;66903;59.926;30.404;2024-02-26T18:44:27;101282.59;;;6.50;64.38
77737;BME280;66903;59.926;30.404;2024-02-26T18:49:41;101299.53;;;6.71;64.03
77737;BME280;66903;59.926;30.404;2024-02-26T18:54:53;101318.41;;;6.76;64.03
77737;BME280;66903;59.926;30.404;2024-02-26T19:00:04;101313.22;;;6.81;63.99
77737;BME280;66903;59.926;30.404;2024-02-26T19:05:16;101319.28;;;6.85;63.79
77737;BME280;66903;59.926;30.404;2024-02-26T19:10:28;101321.88;;;6.86;63.84
77737;BME280;66903;59.926;30.404;2024-02-26T19:15:39;101325.66;;;6.93;63.75
77737;BME280;66903;59.926;30.404;2024-02-26T19:20:52;101334.03;;;6.77;64.39
77737;BME280;66903;59.926;30.404;2024-02-26T19:26:03;101303.78;;;6.35;64.65
77737;BME280;66903;59.926;30.404;2024-02-26T19:31:15;101313.31;;;6.25;64.67
77737;BME280;66903;59.926;30.404;2024-02-26T19:36:26;101335.66;;;6.23;64.67
77737;BME280;66903;59.926;30.404;2024-02-26T19:41:52;101355.78;;;6.33;64.82
77737;BME280;66903;59.926;30.404;2024-02-26T19:47:04;101349.53;;;6.23;65.19
77737;BME280;66903;59.926;30.404;2024-02-26T19:52:15;101314.16;;;6.09;64.85
77737;BME280;66903;59.926;30.404;2024-02-26T19:57:27;101331.69;;;6.26;64.56
77737;BME280;66903;59.926;30.404;2024-02-26T20:02:41;101334.09;;;6.29;65.64
77737;BME280;66903;59.926;30.404;2024-02-26T20:07:52;101370.19;;;6.37;65.33
77737;BME280;66903;59.926;30.404;2024-02-26T20:13:03;101373.47;;;6.24;65.86
77737;BME280;66903;59.926;30.404;2024-02-26T20:18:14;101324.91;;;5.88;66.17
77737;BME280;66903;59.926;30.404;2024-02-26T20:23:25;101343.97;;;5.99;66.37
77737;BME280;66903;59.926;30.404;2024-02-26T20:28:36;101339.31;;;6.00;65.97
77737;BME280;66903;59.926;30.404;2024-02-26T20:33:53;101369.84;;;6.32;66.02
77737;BME280;66903;59.926;30.404;2024-02-26T20:39:04;101341.72;;;6.27;65.79
77737;BME280;66903;59.926;30.404;2024-02-26T20:44:15;101374.66;;;6.54;65.35
77737;BME280;66903;59.926;30.404;2024-02-26T20:49:26;101366.31;;;6.62;65.03
77737;BME280;66903;59.926;30.404;2024-02-26T20:54:37;101383.66;;;6.64;64.88
77737;BME280;66903;59.926;30.404;2024-02-26T20:59:48;101393.94;;;6.47;64.92
77737;BME280;66903;59.926;30.404;2024-02-26T21:04:59;101362.53;;;6.15;66.92
77737;BME280;66903;59.926;30.404;2024-02-26T21:10:11;101366.50;;;5.96;66.48
77737;BME280;66903;59.926;30.404;2024-02-26T21:15:22;101391.81;;;6.09;67.73
77737;BME280;66903;59.926;30.404;2024-02-26T21:20:33;101363.34;;;5.83;67.95
77737;BME280;66903;59.926;30.404;2024-02-26T21:25:44;101392.13;;;5.90;68.37
77737;BME280;66903;59.926;30.404;2024-02-26T21:30:55;101395.44;;;5.94;67.33
77737;BME280;66903;59.926;30.404;2024-02-26T21:36:08;101358.13;;;5.80;66.62
77737;BME280;66903;59.926;30.404;2024-02-26T21:41:19;101376.47;;;5.81;68.05
77737;BME280;66903;59.926;30.404;2024-02-26T21:46:30;101349.44;;;5.59;67.66
77737;BME280;66903;59.926;30.404;2024-02-26T21:51:47;101403.91;;;5.92;67.66
77737;BME280;66903;59.926;30.404;2024-02-26T21:56:59;101408.09;;;6.04;67.69
77737;BME280;66903;59.926;30.404;2024-02-26T22:02:11;101411.03;;;6.03;67.60
77737;BME280;66903;59.926;30.404;2024-02-26T22:07:22;101381.19;;;5.81;68.40
77737;BME280;66903;59.926;30.404;2024-02-26T22:12:33;101398.53;;;5.83;67.48
77737;BME280;66903;59.926;30.404;2024-02-26T22:17:47;101398.81;;;5.80;67.13
77737;BME280;66903;59.926;30.404;2024-02-26T22:22:58;101418.47;;;5.86;68.99
77737;BME280;66903;59.926;30.404;2024-02-26T22:28:09;101431.81;;;5.83;68.65
77737;BME280;66903;59.926;30.404;2024-02-26T22:33:20;101428.25;;;5.73;69.71
77737;BME280;66903;59.926;30.404;2024-02-26T22:38:31;101439.81;;;5.60;70.10
77737;BME280;66903;59.926;30.404;2024-02-26T22:43:43;101411.00;;;5.37;71.11
77737;BME280;66903;59.926;30.404;2024-02-26T22:48:57;101417.00;;;5.32;71.53
77737;BME280;66903;59.926;30.404;2024-02-26T22:54:08;101453.81;;;5.50;70.54
77737;BME280;66903;59.926;30.404;2024-02-26T22:59:19;101421.69;;;5.32;71.15
77737;BME280;66903;59.926;30.404;2024-02-26T23:04:30;101419.63;;;5.34;71.48
77737;BME280;66903;59.926;30.404;2024-02-26T23:09:41;101412.34;;;5.33;70.92
77737;BME280;66903;59.926;30.404;2024-02-26T23:14:52;101448.91;;;5.44;71.99
77737;BME280;66903;59.926;30.404;2024-02-26T23:20:05;101423.78;;;5.30;71.64
77737;BME280;66903;59.926;30.404;2024-02-26T23:25:19;101421.56;;;5.41;70.36
77737;BME280;66903;59.926;30.404;2024-02-26T23:30:30;101439.28;;;5.56;70.69
77737;BME280;66903;59.926;30.404;2024-02-26T23:35:41;101453.03;;;5.74;70.22
77737;BME280;66903;59.926;30.404;2024-02-26T23:40:52;101436.91;;;5.61;69.92
77737;BME280;66903;59.926;30.404;2024-02-26T23:46:04;101428.19;;;5.56;69.46
77737;BME280;66903;59.926;30.404;2024-02-26T23:51:19;101422.28;;;5.51;69.68
77737;BME280;66903;59.926;30.404;2024-02-26T23:56:30;101439.59;;;5.45;71.34
